Latest Weather Observations for Pirlangimpi

IDD60901

Issued at 9:31 pm CST Thursday 30 July 2015 (issued every 10 minutes, with the page automatically refreshed every 10 minutes)

About weather observations | Map of Darwin area stations | Latest observations for Darwin area | Other Formats
Station Details ID: 014142 Name: PIRLANGIMPI AIRPORT Lat: -11.40 Lon: 130.42 Height: 18.3 m
Data from the previous 72 hours. | See also: Recent months at Pirlangimpi
Date/Time
CST
Tmp

°C
App
Tmp
°C
Dew
Point
°C
Rel
Hum
%
Delta-T

°C
Wind Press
QNH
hPa
Press
MSL
hPa
Rain
since
9 am
mm
Dir
 
Spd
km/h
Gust
km/h
Spd
kts
Gust
kts
30/09:30pm 22.8 25.9 20.3 86 1.6 NE 4 6 2 3 1015.2 1015.1 0.0
30/09:00pm 23.0 26.0 20.1 84 1.9 NE 4 7 2 4 1014.8 1014.7 0.0
30/08:30pm 23.6 27.1 20.3 82 2.1 NE 2 4 1 2 1014.5 1014.4 0.0
30/08:00pm 24.1 27.3 20.4 80 2.4 NE 4 7 2 4 1014.1 1014.0 0.0
30/07:30pm 24.7 27.6 20.6 78 2.7 NE 6 9 3 5 1013.7 1013.6 0.0
30/07:00pm 25.4 28.5 20.2 73 3.4 NNE 4 7 2 4 1013.7 1013.6 0.0
30/06:30pm 26.7 29.1 20.1 67 4.3 ENE 7 9 4 5 1013.6 1013.5 0.0
30/06:00pm 27.6 30.1 20.2 64 4.8 E 7 11 4 6 1013.5 1013.4 0.0
30/05:30pm 28.4 29.8 19.6 59 5.7 E 11 17 6 9 1013.4 1013.3 0.0
30/05:00pm 29.1 30.4 19.4 55 6.3 NE 11 19 6 10 1013.2 1013.1 0.0
30/04:30pm 29.9 31.3 19.6 54 6.7 NE 11 19 6 10 1013.1 1013.0 0.0
30/04:00pm 29.8 30.4 18.6 51 7.2 ENE 13 19 7 10 1013.0 1012.9 0.0
30/03:30pm 31.0 31.6 18.7 48 8.0 ENE 13 22 7 12 1013.0 1012.9 0.0
30/03:00pm 31.3 31.2 17.9 44 8.6 ENE 15 24 8 13 1013.0 1012.9 0.0
30/02:30pm 32.0 31.2 17.1 41 9.5 ENE 17 30 9 16 1013.4 1013.3 0.0
30/02:00pm 30.7 30.0 17.4 45 8.5 E 17 26 9 14 1013.9 1013.8 0.0
30/01:30pm 30.9 29.5 16.9 43 8.8 E 20 30 11 16 1014.5 1014.4 0.0
30/01:00pm 31.9 31.1 17.0 41 9.5 ENE 17 28 9 15 1014.9 1014.8 0.0
30/12:30pm 31.9 31.8 17.8 43 9.0 ENE 15 32 8 17 1015.3 1015.2 0.0
30/12:00pm 31.0 30.6 18.0 45 8.3 E 17 30 9 16 1015.8 1015.7 0.0
30/11:30am 29.5 28.3 17.0 47 7.9 E 19 30 10 16 1016.3 1016.2 0.0
30/11:00am 29.0 28.2 17.2 49 7.4 ESE 17 26 9 14 1016.6 1016.5 0.0
30/10:30am 28.4 28.4 17.3 51 7.0 E 13 30 7 16 1016.7 1016.6 0.0
30/10:00am 27.7 27.5 17.5 53 6.4 SE 15 26 8 14 1016.5 1016.4 0.0
30/09:30am 25.9 28.3 20.0 70 3.8 S 7 15 4 8 1016.2 1016.1 0.0
30/09:00am 23.6 26.0 19.7 79 2.5 SE 6 11 3 6 1016.2 1016.1 0.0
30/08:30am 21.6 23.8 18.4 82 2.0 SE 4 6 2 3 1016.0 1015.9 0.0
30/08:00am 19.4 21.3 16.8 85 1.6 ENE 2 2 1 1 1016.0 1015.9 0.0
30/07:30am 18.1 19.6 15.7 86 1.4 E 2 2 1 1 1015.8 1015.7 0.0
30/07:00am 18.2 19.7 15.6 85 1.5 ESE 2 4 1 2 1015.5 1015.4 0.0
30/06:30am 18.2 19.7 15.6 85 1.5 SSE 2 4 1 2 1015.3 1015.2 0.0
30/06:00am 19.1 20.8 17.2 89 1.2 SSE 4 6 2 3 1015.3 1015.2 0.0
30/05:30am 18.5 20.1 15.9 85 1.5 SE 2 4 1 2 1015.5 1015.4 0.0
30/05:00am 18.6 20.2 16.0 85 1.5 ENE 2 6 1 3 1015.6 1015.5 0.0
30/04:30am 18.4 19.4 15.3 82 1.8 ESE 4 6 2 3 1015.5 1015.4 0.0
30/04:00am 18.5 20.2 15.2 81 1.9 CALM 0 4 0 2 1015.7 1015.6 0.0
30/03:30am 18.9 20.6 15.2 79 2.2 CALM 0 0 0 0 1016.0 1015.9 0.0
30/03:00am 19.3 21.1 15.4 78 2.3 CALM 0 0 0 0 1016.2 1016.1 0.0
30/02:30am 19.7 21.2 15.6 77 2.4 ENE 2 4 1 2 1016.4 1016.3 0.0
30/02:00am 20.1 22.0 15.7 76 2.6 CALM 0 0 0 0 1016.5 1016.4 0.0
30/01:30am 20.0 21.6 16.0 78 2.4 E 2 4 1 2 1016.8 1016.7 0.0
30/01:00am 20.6 22.7 16.2 76 2.6 CALM 0 2 0 1 1016.8 1016.7 0.0
30/12:30am 20.2 22.0 15.6 75 2.7 CALM 0 0 0 0 1016.9 1016.8 0.0
30/12:00am 20.2 22.0 15.4 74 2.8 CALM 0 0 0 0 1016.8 1016.7 0.0
 
Date/Time
CST
Tmp

°C
App
Tmp
°C
Dew
Point
°C
Rel
Hum
%
Delta-T

°C
Wind Press
QNH
hPa
Press
MSL
hPa
Rain
since
9 am
mm
Dir
 
Spd
km/h
Gust
km/h
Spd
kts
Gust
kts
29/11:30pm 20.7 22.8 16.3 76 2.6 CALM 0 0 0 0 1016.7 1016.6 0.0
29/11:00pm 21.0 22.6 14.9 68 3.6 CALM 0 0 0 0 1016.5 1016.4 0.0
29/10:30pm 21.2 22.6 14.4 65 4.0 CALM 0 0 0 0 1016.3 1016.2 0.0
29/10:00pm 21.6 22.2 14.3 63 4.3 ENE 4 6 2 3 1016.2 1016.1 0.0
29/09:30pm 22.3 22.5 14.7 62 4.5 NE 7 9 4 5 1016.1 1016.0 0.0
29/09:00pm 22.7 22.8 14.5 60 4.8 NE 7 9 4 5 1015.9 1015.8 0.0
29/08:30pm 22.9 23.1 14.2 58 5.1 ENE 6 7 3 4 1015.7 1015.6 0.0
29/08:00pm 23.6 23.7 13.8 54 5.7 E 6 9 3 5 1015.3 1015.2 0.0
29/07:30pm 25.3 26.0 13.5 48 6.9 E 2 4 1 2 1014.9 1014.8 0.0
29/07:00pm 27.4 27.3 13.4 42 8.3 E 6 7 3 4 1014.4 1014.3 0.0
29/06:30pm 28.4 28.0 13.1 39 9.0 ESE 7 15 4 8 1014.3 1014.2 0.0
29/06:00pm 29.2 28.7 13.8 39 9.2 ESE 9 17 5 9 1014.1 1014.0 0.0
29/05:30pm 29.7 28.3 13.5 37 9.7 E 13 24 7 13 1013.9 1013.8 0.0
29/05:00pm 30.7 30.0 14.3 36 10.0 E 11 22 6 12 1013.6 1013.5 0.0
29/04:30pm 30.5 28.8 13.7 35 10.1 E 15 26 8 14 1013.6 1013.5 0.0
29/04:00pm 30.6 28.7 14.3 37 9.9 E 17 26 9 14 1013.5 1013.4 0.0
29/03:30pm 30.7 29.2 15.2 39 9.5 E 17 28 9 15 1013.5 1013.4 0.0
29/03:00pm 31.3 30.0 15.7 39 9.7 E 17 26 9 14 1013.6 1013.5 0.0
29/02:30pm 30.6 29.3 15.8 40 9.2 ESE 17 30 9 16 1013.9 1013.8 0.0
29/02:00pm 31.3 31.0 16.5 41 9.3 ESE 13 26 7 14 1014.2 1014.1 0.0
29/01:30pm 29.6 28.8 16.1 44 8.4 E 15 26 8 14 1014.8 1014.7 0.0
29/01:00pm 30.4 28.9 16.4 43 8.8 ESE 19 32 10 17 1015.2 1015.1 0.0
29/12:30pm 31.1 30.4 16.3 41 9.3 E 15 28 8 15 1015.6 1015.5 0.0
29/12:00pm 29.7 28.9 17.2 47 7.9 E 17 28 9 15 1016.1 1016.0 0.0
29/11:30am 29.1 27.2 16.6 46 7.8 E 22 32 12 17 1016.6 1016.5 0.0
29/11:00am 28.3 26.4 16.6 49 7.3 E 22 37 12 20 1017.1 1017.0 0.0
29/10:30am 27.9 26.5 16.5 50 7.1 E 19 35 10 19 1017.3 1017.2 0.0
29/10:00am 26.8 25.7 16.4 53 6.4 E 17 24 9 13 1017.6 1017.5 0.0
29/09:30am 25.7 25.4 16.5 56 5.7 E 13 17 7 9 1017.7 1017.6 0.0
29/09:00am 24.6 25.1 16.6 61 4.9 ESE 9 17 5 9 1017.6 1017.5 0.0
29/08:30am 23.7 24.2 16.5 64 4.4 ESE 9 17 5 9 1017.3 1017.2 0.0
29/08:00am 22.4 23.3 16.2 68 3.8 SE 6 11 3 6 1016.9 1016.8 0.0
29/07:30am 21.8 22.4 15.9 69 3.5 ESE 7 13 4 7 1016.7 1016.6 0.0
29/07:00am 20.6 21.2 15.4 72 3.1 ESE 6 9 3 5 1016.3 1016.2 0.0
29/06:30am 20.1 20.9 15.9 77 2.5 E 6 9 3 5 1016.1 1016.0 0.0
29/06:00am 17.3 18.0 14.4 83 1.7 E 4 6 2 3 1015.9 1015.8 0.0
29/05:30am 17.6 18.7 14.7 83 1.7 E 2 6 1 3 1015.8 1015.7 0.0
29/05:00am 17.8 19.5 15.2 85 1.5 CALM 0 6 0 3 1015.8 1015.7 0.0
29/04:30am 17.5 18.5 14.2 81 1.9 S 2 4 1 2 1015.6 1015.5 0.0
29/04:00am 18.3 19.9 14.8 80 2.0 CALM 0 0 0 0 1015.7 1015.6 0.0
29/03:30am 18.7 19.9 15.0 79 2.2 SE 2 2 1 1 1015.8 1015.7 0.0
29/03:00am 19.3 20.5 15.0 76 2.5 ESE 2 4 1 2 1015.9 1015.8 0.0
29/02:30am 19.1 19.8 14.4 74 2.7 ESE 4 4 2 2 1016.1 1016.0 0.0
29/02:00am 19.8 20.8 14.2 70 3.2 SSE 2 4 1 2 1016.2 1016.1 0.0
29/01:30am 20.9 21.5 15.2 70 3.4 SSE 6 9 3 5 1016.3 1016.2 0.0
29/01:00am 20.0 21.1 15.6 76 2.6 SE 4 7 2 4 1016.5 1016.4 0.0
29/12:30am 18.6 19.1 12.8 69 3.2 SSE 2 6 1 3 1016.6 1016.5 0.0
29/12:00am 18.9 19.7 12.4 66 3.6 CALM 0 0 0 0 1016.7 1016.6 0.0
 
Date/Time
CST
Tmp

°C
App
Tmp
°C
Dew
Point
°C
Rel
Hum
%
Delta-T

°C
Wind Press
QNH
hPa
Press
MSL
hPa
Rain
since
9 am
mm
Dir
 
Spd
km/h
Gust
km/h
Spd
kts
Gust
kts
28/11:30pm 19.7 20.4 12.2 62 4.2 CALM 0 0 0 0 1016.5 1016.4 0.0
28/11:00pm 20.3 21.0 12.3 60 4.5 CALM 0 0 0 0 1016.7 1016.6 0.0
28/10:30pm 21.0 21.6 11.9 56 5.1 CALM 0 2 0 1 1016.7 1016.6 0.0
28/10:00pm 22.5 22.0 10.9 48 6.4 E 4 6 2 3 1016.7 1016.6 0.0
28/09:30pm 24.5 24.1 11.1 43 7.5 ESE 4 6 2 3 1016.6 1016.5 0.0
28/09:00pm 25.3 24.3 10.4 39 8.3 ESE 6 7 3 4 1016.5 1016.4 0.0
28/08:30pm 26.0 25.1 10.6 38 8.6 ESE 6 7 3 4 1016.5 1016.4 0.0
28/08:00pm 25.8 24.9 10.8 39 8.4 ESE 6 9 3 5 1016.2 1016.1 0.0
28/07:30pm 25.9 25.6 11.6 40 8.1 ESE 4 4 2 2 1015.8 1015.7 0.0
28/07:00pm 27.2 26.9 11.3 37 9.1 ESE 4 6 2 3 1015.4 1015.3 0.0
28/06:30pm 28.2 27.5 11.3 35 9.7 ESE 6 9 3 5 1015.1 1015.0 0.0
28/06:00pm 29.2 27.5 11.3 33 10.3 ESE 11 20 6 11 1014.9 1014.8 0.0
28/05:30pm 29.7 27.6 11.2 31 10.6 SE 13 28 7 15 1014.7 1014.6 0.0
28/05:00pm 30.3 28.4 11.8 32 10.8 ESE 13 28 7 15 1014.6 1014.5 0.0
28/04:30pm 30.3 27.4 12.2 33 10.6 ESE 19 30 10 16 1014.5 1014.4 0.0
28/04:00pm 30.6 28.5 12.5 33 10.7 E 15 26 8 14 1014.4 1014.3 0.0
28/03:30pm 30.6 28.5 12.5 33 10.7 ESE 15 28 8 15 1014.5 1014.4 0.0
28/03:00pm 31.3 29.4 13.1 33 10.9 SE 15 24 8 13 1014.7 1014.6 0.0
28/02:30pm 30.8 28.4 12.7 33 10.7 ESE 17 24 9 13 1014.9 1014.8 0.0
28/02:00pm 31.4 29.8 12.7 32 11.1 SE 13 24 7 13 1015.3 1015.2 0.0
28/01:30pm 31.1 29.5 12.9 32 10.8 SE 13 33 7 18 1015.7 1015.6 0.0
28/01:00pm 30.5 28.8 12.4 33 10.7 ESE 13 24 7 13 1016.2 1016.1 0.0
28/12:30pm 30.2 28.3 13.0 34 10.2 SE 15 28 8 15 1016.5 1016.4 0.0
28/12:00pm 29.6 27.2 13.8 38 9.5 E 19 32 10 17 1016.9 1016.8 0.0
28/11:30am 29.2 26.9 14.2 40 9.0 SE 19 32 10 17 1017.0 1016.9 0.0
28/11:00am 28.6 26.5 13.7 40 8.9 ESE 17 35 9 19 1017.3 1017.2 0.0
28/10:30am 28.1 25.6 13.6 41 8.6 ESE 19 32 10 17 1017.3 1017.2 0.0
28/10:00am 27.6 26.2 14.6 45 7.8 SE 15 30 8 16 1017.6 1017.5 0.0
28/09:30am 26.5 25.6 14.9 49 7.0 SE 13 24 7 13 1017.7 1017.6 0.0
28/09:00am 25.2 25.0 15.8 56 5.7 SE 11 26 6 14 1017.6 1017.5 0.0
28/08:30am 23.9 24.3 16.2 62 4.7 SE 9 17 5 9 1017.7 1017.6 0.0
28/08:00am 22.8 23.6 17.3 71 3.4 SE 9 15 5 8 1017.6 1017.5 0.0
28/07:30am 21.3 23.4 18.9 86 1.5 SE 6 9 3 5 1017.3 1017.2 0.0
28/07:00am 21.1 23.5 19.7 92 0.9 SE 6 9 3 5 1016.9 1016.8 0.0
28/06:30am 21.1 23.9 19.7 92 0.9 SSE 4 6 2 3 1016.5 1016.4 0.0
28/06:00am 21.6 24.3 20.2 92 0.9 SE 6 9 3 5 1016.5 1016.4 0.0
28/05:30am 21.4 24.6 20.6 95 0.5 ESE 4 9 2 5 1016.4 1016.3 0.0
28/05:00am 20.8 24.2 19.3 91 0.9 CALM 0 4 0 2 1016.1 1016.0 0.0
28/04:30am 21.4 24.5 20.2 93 0.8 SE 4 6 2 3 1015.7 1015.6 0.0
28/04:00am 21.0 24.1 19.5 91 1.0 SE 2 6 1 3 1015.8 1015.7 0.0
28/03:30am 21.3 24.1 19.6 90 1.1 ENE 4 4 2 2 1015.7 1015.6 0.0
28/03:00am 21.7 25.4 20.0 90 1.1 CALM 0 0 0 0 1015.9 1015.8 0.0
28/02:30am 22.3 25.5 20.6 90 1.1 SE 4 6 2 3 1016.3 1016.2 0.0
28/02:00am 22.4 26.1 20.7 90 1.1 SE 2 4 1 2 1016.5 1016.4 0.0
28/01:30am 22.6 26.0 20.9 90 1.1 SSE 4 6 2 3 1016.7 1016.6 0.0
28/01:00am 22.5 26.0 20.4 88 1.4 SE 2 4 1 2 1016.8 1016.7 0.0
28/12:30am 22.9 26.1 20.6 87 1.5 SE 4 7 2 4 1016.6 1016.5 0.0
28/12:00am 22.8 26.2 20.1 85 1.7 SSE 2 6 1 3 1016.6 1016.5 0.0
 
Date/Time
CST
Tmp

°C
App
Tmp
°C
Dew
Point
°C
Rel
Hum
%
Delta-T

°C
Wind Press
QNH
hPa
Press
MSL
hPa
Rain
since
9 am
mm
Dir
 
Spd
km/h
Gust
km/h
Spd
kts
Gust
kts
27/11:30pm 23.2 27.0 20.2 83 1.9 CALM 0 2 0 1 1016.6 1016.5 0.0
27/11:00pm 24.1 27.6 20.4 80 2.4 ESE 2 2 1 1 1016.5 1016.4 0.0
27/10:30pm 24.7 27.8 21.0 80 2.4 ENE 6 9 3 5 1016.4 1016.3 0.0
27/10:00pm 24.7 27.5 20.8 79 2.6 ENE 7 11 4 6 1016.2 1016.1 0.0

Latest Capital City Observations: Canberra | Sydney | Melbourne | Brisbane | Adelaide | Perth | Hobart | Darwin

Other Formats:

Comma delimited format used in spreadsheet applications
http://www.bom.gov.au/fwo/IDD60901/IDD60901.94119.axf

JavaScript Object Notation format (JSON) in row-major order
http://www.bom.gov.au/fwo/IDD60901/IDD60901.94119.json